Falcon — WBE7134 — position and weather

sailwx.info

Track history (hours):
 
Tides and Currents Weather Stations Pressure Air Temp Water Temp Dewpoint Dewpoint Depression Visibility Wind Speed Wind Dir Waves Ship Positions

Falcon

Owner: Allied Transportation Company, NORFOLK, VA. More information available from US FCC via Universal Licensing System and Coast Guard Vessel Documentation Center.

Last reported at 2017-Sep-21 05:07 UTC. Time now 2017-Sep-21 15:52 UTC.
Position N 36°45' W 075°50'.

Length 37 m; draft 6 m.

Type: Tug. MMSI: 366976720.

Date/timePositionNaut miles runAvg speedWind from/ knotsBaromVisibWave heightAir tempDewpointWater temp
2017-Sep-21 05:07N 36°45' W 075°50'1 7.9
2017-Sep-21 04:59N 36°46' W 075°50'4 7.9
2017-Sep-21 04:30N 36°49' W 075°52'4 7.8
2017-Sep-21 04:00N 36°53' W 075°55'3 7.0
2017-Sep-21 03:30N 36°55' W 075°58'4 7.1
2017-Sep-21 03:00N 36°57' W 076°02'3 6.5
2017-Sep-21 02:30N 36°58' W 076°05'3 5.9
2017-Sep-21 02:00N 36°59' W 076°09'8 5.8
2017-Sep-21 00:35N 36°59' W 076°19'1 6.4
2017-Sep-21 00:26N 36°58' W 076°20'2 4.3
2017-Sep-21 00:00N 36°57' W 076°22'0 0.5
2017-Sep-20 23:17N 36°57' W 076°21'0 0.1
2017-Sep-20 22:47N 36°57' W 076°21'0 0.0
2017-Sep-20 15:38N 36°57' W 076°21'0 0.0
2017-Sep-20 13:08N 36°57' W 076°21'0 0.0
2017-Sep-20 12:59N 36°57' W 076°21'0 0.0
2017-Sep-20 12:29N 36°57' W 076°21'0 0.0
2017-Sep-20 11:56N 36°57' W 076°21'0 0.1
2017-Sep-20 11:26N 36°57' W 076°21'0 0.1
2017-Sep-20 10:26N 36°57' W 076°21'0 0.1
2017-Sep-20 09:56N 36°57' W 076°21'0 0.0
2017-Sep-20 05:05N 36°57' W 076°21'0 0.1
2017-Sep-20 04:47N 36°57' W 076°21'0 0.1
2017-Sep-20 04:29N 36°57' W 076°21'0 0.0
2017-Sep-20 03:56N 36°57' W 076°21'0 0.1
2017-Sep-20 02:02N 36°57' W 076°21'0 0.1
2017-Sep-20 01:53N 36°57' W 076°21'0 0.0
2017-Sep-20 01:29N 36°57' W 076°21'0 0.0
2017-Sep-20 00:59N 36°57' W 076°21'0 0.0
2017-Sep-20 00:29N 36°57' W 076°21'0 0.0
2017-Sep-19 23:56N 36°57' W 076°21'0 0.0
2017-Sep-19 22:47N 36°57' W 076°21'0 0.1
2017-Sep-19 22:29N 36°57' W 076°21'0 0.0
2017-Sep-19 21:59N 36°57' W 076°21'0 0.0
2017-Sep-19 13:47N 36°57' W 076°21'0 0.0
2017-Sep-19 13:29N 36°57' W 076°21'0 0.0
2017-Sep-19 12:56N 36°57' W 076°21'0 0.0
2017-Sep-19 12:29N 36°57' W 076°21'0 0.0
2017-Sep-19 11:59N 36°57' W 076°21'0 0.0
2017-Sep-19 11:29N 36°57' W 076°21'0 0.0
2017-Sep-19 10:59N 36°57' W 076°21'0 0.0
2017-Sep-19 03:35N 36°57' W 076°21'0 0.0
2017-Sep-19 03:29N 36°57' W 076°21'0 0.0
2017-Sep-19 02:59N 36°57' W 076°21'0 0.0
2017-Sep-19 02:29N 36°57' W 076°21'0 0.0
2017-Sep-19 01:59N 36°57' W 076°21'0 0.0
2017-Sep-19 01:29N 36°57' W 076°21'0 0.0
2017-Sep-19 00:59N 36°57' W 076°21'0 0.0
2017-Sep-19 00:29N 36°57' W 076°21'0 0.0
2017-Sep-18 23:59N 36°57' W 076°21'0 0.0
2017-Sep-18 23:20N 36°57' W 076°21'0 0.0
2017-Sep-18 22:56N 36°57' W 076°21'0 0.0
2017-Sep-18 22:29N 36°57' W 076°21'0 0.0
2017-Sep-18 21:59N 36°57' W 076°21'0 0.0
2017-Sep-18 21:29N 36°57' W 076°21'0 0.0
2017-Sep-18 20:56N 36°57' W 076°21'0 0.0
2017-Sep-18 20:29N 36°57' W 076°21'0 0.1
2017-Sep-18 18:56N 36°57' W 076°21'0 0.0
2017-Sep-18 15:17N 36°57' W 076°21'0 0.0
2017-Sep-18 14:44N 36°57' W 076°21'0 0.0
2017-Sep-18 14:29N 36°57' W 076°21'0 0.0
2017-Sep-18 13:59N 36°57' W 076°21'0 0.0
2017-Sep-18 13:20N 36°57' W 076°21'0 0.0
2017-Sep-18 12:59N 36°57' W 076°21'0 0.0
2017-Sep-18 12:29N 36°57' W 076°21'0 0.0
2017-Sep-18 11:59N 36°57' W 076°21'0 0.0
2017-Sep-18 11:26N 36°57' W 076°21'0 0.0
2017-Sep-18 10:59N 36°57' W 076°21'0 0.0
2017-Sep-18 10:02N 36°57' W 076°21'0 0.0
2017-Sep-18 09:47N 36°57' W 076°21'0 0.1
2017-Sep-18 09:29N 36°57' W 076°21'0 0.0
2017-Sep-18 08:59N 36°57' W 076°21'0 0.0
2017-Sep-18 08:29N 36°57' W 076°21'0 0.0
2017-Sep-18 02:41N 36°57' W 076°21'0 0.1
2017-Sep-18 02:29N 36°57' W 076°21'0 0.0
2017-Sep-18 01:59N 36°57' W 076°21'0 0.0
2017-Sep-18 01:17N 36°57' W 076°21'0 0.0
2017-Sep-18 00:41N 36°57' W 076°21'0 0.0
2017-Sep-18 00:29N 36°57' W 076°21'0 0.0
2017-Sep-17 23:53N 36°57' W 076°21'0 0.0
2017-Sep-17 23:23N 36°57' W 076°21'0 0.0
2017-Sep-17 22:59N 36°57' W 076°21'0 0.0
2017-Sep-17 19:38N 36°57' W 076°21'0 0.0
2017-Sep-17 19:29N 36°57' W 076°21'0 0.0
2017-Sep-17 14:11N 36°57' W 076°21'0 0.1
2017-Sep-17 13:59N 36°57' W 076°21'0 0.0
2017-Sep-17 13:20N 36°57' W 076°21'0 0.1
2017-Sep-17 12:59N 36°57' W 076°21'0 0.0
2017-Sep-17 12:23N 36°57' W 076°21'0 0.0
2017-Sep-17 11:56N 36°57' W 076°21'0 0.0
2017-Sep-17 11:29N 36°57' W 076°21'0 0.0
2017-Sep-17 10:59N 36°57' W 076°21'0 0.1
2017-Sep-17 10:29N 36°57' W 076°21'0 0.0
2017-Sep-17 08:35N 36°57' W 076°21'0 0.0
2017-Sep-17 08:20N 36°57' W 076°21'0 0.0
2017-Sep-17 07:59N 36°57' W 076°21'0 0.1
2017-Sep-17 06:20N 36°57' W 076°21'0 0.1
2017-Sep-17 05:59N 36°57' W 076°21'0 0.0
2017-Sep-17 04:53N 36°57' W 076°21'0 0.0
2017-Sep-17 04:26N 36°57' W 076°21'0 0.0
2017-Sep-17 03:59N 36°57' W 076°21'0 0.0
2017-Sep-17 03:14N 36°57' W 076°21'0 0.0
2017-Sep-17 01:47N 36°57' W 076°21'0 0.1
2017-Sep-17 01:29N 36°57' W 076°21'0 0.1
2017-Sep-17 00:44N 36°57' W 076°21'0 0.0
2017-Sep-17 00:26N 36°57' W 076°21'0 0.0
2017-Sep-16 23:56N 36°57' W 076°21'0 0.0
2017-Sep-16 22:32N 36°57' W 076°21'0 0.1
2017-Sep-16 22:29N 36°57' W 076°21'0 0.0
2017-Sep-16 21:59N 36°57' W 076°21'0 0.0
2017-Sep-16 19:47N 36°57' W 076°21'0 0.0
2017-Sep-16 19:29N 36°57' W 076°21'1 0.3
2017-Sep-16 16:21N 36°58' W 076°20'33 6.6
2017-Sep-16 11:22N 37°30' W 076°10'3 8.0
2017-Sep-16 10:58N 37°33' W 076°10'5 8.3
2017-Sep-16 10:24N 37°38' W 076°10'4 8.7
2017-Sep-16 09:54N 37°42' W 076°11'4 9.0
2017-Sep-16 09:27N 37°46' W 076°11'4 9.1
2017-Sep-16 09:00N 37°50' W 076°10'5 9.1
2017-Sep-16 08:30N 37°55' W 076°11'5 9.2
2017-Sep-16 08:00N 37°59' W 076°13'5 9.0
2017-Sep-16 07:29N 38°03' W 076°14'5 8.7
2017-Sep-16 06:57N 38°08' W 076°16'4 8.6
2017-Sep-16 06:29N 38°12' W 076°17'4 8.3
2017-Sep-16 06:01N 38°15' W 076°19'4 8.1
2017-Sep-16 05:29N 38°19' W 076°20'4 8.0
2017-Sep-16 05:00N 38°23' W 076°21'16 7.8
2017-Sep-16 02:56N 38°39' W 076°28'3 8.0
2017-Sep-16 02:30N 38°42' W 076°28'4 8.2
2017-Sep-16 01:59N 38°46' W 076°27'4 8.4
2017-Sep-16 01:30N 38°50' W 076°26'4 8.8
2017-Sep-16 01:00N 38°54' W 076°25'5 9.1
2017-Sep-16 00:31N 38°59' W 076°23'5 9.2
2017-Sep-16 00:00N 39°03' W 076°21'4 8.4
2017-Sep-15 23:30N 39°07' W 076°18'4 7.2
2017-Sep-15 23:00N 39°10' W 076°18'4 8.6
2017-Sep-15 22:30N 39°14' W 076°15'4 8.2
2017-Sep-15 22:00N 39°18' W 076°13'4 7.7
2017-Sep-15 21:30N 39°21' W 076°10'4 7.6
2017-Sep-15 21:00N 39°23' W 076°06'4 7.3
2017-Sep-15 20:30N 39°25' W 076°02'4 7.3
2017-Sep-15 20:00N 39°27' W 075°59'4 7.1
2017-Sep-15 19:30N 39°30' W 075°56'3 6.6
2017-Sep-15 19:00N 39°32' W 075°52'3 6.0
2017-Sep-15 18:30N 39°32' W 075°48'3 6.5
2017-Sep-15 18:00N 39°32' W 075°44'3 6.9
2017-Sep-15 17:30N 39°33' W 075°40'4 7.1
2017-Sep-15 17:00N 39°33' W 075°35'3 5.8
2017-Sep-15 16:30N 39°36' W 075°34'5 9.3
2017-Sep-15 16:00N 39°40' W 075°32'510.0
2017-Sep-15 15:30N 39°45' W 075°29'5 9.1
2017-Sep-15 15:01N 39°48' W 075°25'4 8.8
2017-Sep-15 14:30N 39°51' W 075°20'4 7.8
2017-Sep-15 14:00N 39°51' W 075°15'4 7.1
2017-Sep-15 13:30N 39°53' W 075°12'1 1.3
2017-Sep-15 13:00N 39°54' W 075°12'0 0.0
2017-Sep-15 12:30N 39°54' W 075°12'0 0.0
2017-Sep-15 12:00N 39°54' W 075°12'0 0.0
2017-Sep-15 11:31N 39°54' W 075°12'0 0.0
2017-Sep-15 11:01N 39°54' W 075°12'0 0.1
2017-Sep-15 10:31N 39°54' W 075°12'0 0.0
2017-Sep-15 10:00N 39°54' W 075°12'0 0.0
2017-Sep-15 09:30N 39°54' W 075°12'0 0.0
2017-Sep-15 09:00N 39°54' W 075°12'0 0.0
2017-Sep-15 08:30N 39°54' W 075°12'0 0.0
2017-Sep-15 08:01N 39°54' W 075°12'0 0.0
2017-Sep-15 07:30N 39°54' W 075°12'0 0.0
2017-Sep-15 07:01N 39°54' W 075°12'0 0.0
2017-Sep-15 06:30N 39°54' W 075°12'0 0.0
2017-Sep-15 06:00N 39°54' W 075°12'0 0.0
2017-Sep-15 05:30N 39°54' W 075°12'0 0.0
2017-Sep-15 05:00N 39°54' W 075°12'0 0.0
2017-Sep-15 04:30N 39°54' W 075°12'0 0.0
2017-Sep-15 04:00N 39°54' W 075°12'0 0.0
2017-Sep-15 03:30N 39°54' W 075°12'0 0.0
2017-Sep-15 03:00N 39°54' W 075°12'0 0.0
2017-Sep-15 02:30N 39°54' W 075°12'0 0.0
2017-Sep-15 02:00N 39°54' W 075°12'0 0.0
2017-Sep-15 01:30N 39°54' W 075°12'0 0.0
2017-Sep-15 01:00N 39°54' W 075°12'0 0.0
2017-Sep-15 00:30N 39°54' W 075°12'0 0.2
2017-Sep-15 00:00N 39°54' W 075°12'2 3.2
2017-Sep-14 23:30N 39°52' W 075°13'0 0.0
2017-Sep-14 23:00N 39°52' W 075°13'0 0.0
2017-Sep-14 22:30N 39°52' W 075°13'0 0.0
2017-Sep-14 22:00N 39°52' W 075°13'0 0.0
2017-Sep-14 21:30N 39°52' W 075°13'0 0.0
2017-Sep-14 21:00N 39°52' W 075°13'0 0.0
2017-Sep-14 20:30N 39°52' W 075°13'0 0.1
2017-Sep-14 20:00N 39°52' W 075°13'0 0.3
2017-Sep-14 19:30N 39°52' W 075°13'0 0.1
2017-Sep-14 19:00N 39°52' W 075°13'0 0.0
2017-Sep-14 18:30N 39°52' W 075°13'0 0.1
2017-Sep-14 18:00N 39°52' W 075°13'0 0.1
2017-Sep-14 17:30N 39°52' W 075°13'0 0.0
2017-Sep-14 17:00N 39°52' W 075°13'0 0.0
2017-Sep-14 16:30N 39°52' W 075°13'0 0.0
2017-Sep-14 16:00N 39°52' W 075°13'0 0.1
2017-Sep-14 15:30N 39°52' W 075°13'0 0.1
2017-Sep-14 15:00N 39°52' W 075°13'0 0.2
2017-Sep-14 14:30N 39°52' W 075°13'0 0.1
2017-Sep-14 14:00N 39°52' W 075°13'0 0.0
2017-Sep-14 13:30N 39°52' W 075°13'0 0.0
2017-Sep-14 13:00N 39°52' W 075°13'0 0.0
2017-Sep-14 12:30N 39°52' W 075°13'0 0.0
2017-Sep-14 12:00N 39°52' W 075°13'0 0.0
2017-Sep-14 11:30N 39°52' W 075°13'0 0.0
2017-Sep-14 11:00N 39°52' W 075°13'0 0.0
2017-Sep-14 10:30N 39°52' W 075°13'0 0.1
2017-Sep-14 10:00N 39°52' W 075°13'0 0.0
2017-Sep-14 09:30N 39°52' W 075°13'0 0.0
2017-Sep-14 09:00N 39°52' W 075°13'0 0.0
2017-Sep-14 08:30N 39°52' W 075°13'0 0.2
2017-Sep-14 08:00N 39°52' W 075°13'0 0.2
2017-Sep-14 07:30N 39°52' W 075°13'0 0.0
2017-Sep-14 07:00N 39°52' W 075°13'0 0.0
2017-Sep-14 06:30N 39°52' W 075°13'0 0.1
2017-Sep-14 06:00N 39°52' W 075°13'0 0.0
2017-Sep-14 05:30N 39°52' W 075°13'0 0.0
2017-Sep-14 05:00N 39°52' W 075°13'0 0.0
2017-Sep-14 04:30N 39°52' W 075°13'0 0.0
2017-Sep-14 04:00N 39°52' W 075°13'0 0.0
2017-Sep-14 03:30N 39°52' W 075°13'0 0.0
2017-Sep-14 03:00N 39°52' W 075°13'0 0.1
2017-Sep-14 02:30N 39°52' W 075°13'0 0.0
2017-Sep-14 02:00N 39°52' W 075°13'0 0.3
2017-Sep-14 01:30N 39°52' W 075°13'0 0.1
2017-Sep-14 01:00N 39°52' W 075°13'0 0.1
2017-Sep-14 00:30N 39°52' W 075°13'0 0.0
2017-Sep-14 00:00N 39°52' W 075°13'0 0.0
2017-Sep-13 23:30N 39°52' W 075°13'0 0.0
2017-Sep-13 23:00N 39°52' W 075°13'0 0.0
2017-Sep-13 22:31N 39°52' W 075°13'0 0.0
2017-Sep-13 22:00N 39°52' W 075°13'0 0.0
2017-Sep-13 21:30N 39°52' W 075°13'0 0.0
2017-Sep-13 21:00N 39°52' W 075°13'0 0.0
2017-Sep-13 20:30N 39°52' W 075°13'0 0.0
2017-Sep-13 20:01N 39°52' W 075°13'0 0.0
2017-Sep-13 19:31N 39°52' W 075°13'2 3.2
2017-Sep-13 19:00N 39°54' W 075°12'0 0.6
2017-Sep-13 18:31N 39°54' W 075°12'1 1.9
2017-Sep-13 18:01N 39°53' W 075°12'1 2.0
2017-Sep-13 17:31N 39°52' W 075°13'1 1.0
2017-Sep-13 17:00N 39°52' W 075°13'3 5.8
2017-Sep-13 16:30N 39°51' W 075°17'4 7.7
2017-Sep-13 16:01N 39°50' W 075°22'4 7.9
2017-Sep-13 15:30N 39°48' W 075°26'4 8.0
2017-Sep-13 15:00N 39°45' W 075°30'2 4.1
2017-Sep-13 14:30N 39°43' W 075°31'0 0.0
2017-Sep-13 14:00N 39°43' W 075°31'0 0.0
2017-Sep-13 13:30N 39°43' W 075°31'0 0.0
2017-Sep-13 13:00N 39°43' W 075°31'0 0.0
2017-Sep-13 12:30N 39°43' W 075°31'0 0.0
2017-Sep-13 12:00N 39°43' W 075°31'0 0.0
2017-Sep-13 11:30N 39°43' W 075°31'0 0.0
2017-Sep-13 11:00N 39°43' W 075°31'0 0.0
2017-Sep-13 10:30N 39°43' W 075°31'0 0.0
2017-Sep-13 10:00N 39°43' W 075°31'0 0.0
2017-Sep-13 09:30N 39°43' W 075°31'0 0.0
2017-Sep-13 09:00N 39°43' W 075°31'0 0.0
2017-Sep-13 08:30N 39°43' W 075°31'0 0.0
2017-Sep-13 08:00N 39°43' W 075°31'0 0.0
2017-Sep-13 07:30N 39°43' W 075°31'0 0.0
2017-Sep-13 07:00N 39°43' W 075°31'0 0.0
2017-Sep-13 06:30N 39°43' W 075°31'0 0.0
2017-Sep-13 06:00N 39°43' W 075°31'0 0.0
2017-Sep-13 05:30N 39°43' W 075°31'0 0.0
2017-Sep-13 05:00N 39°43' W 075°31'0 0.0
2017-Sep-13 04:29N 39°43' W 075°31'0 0.2
2017-Sep-13 04:00N 39°43' W 075°31'2 5.0
2017-Sep-13 03:30N 39°41' W 075°31'3 6.0
2017-Sep-13 03:00N 39°38' W 075°34'3 5.5
2017-Sep-13 02:31N 39°35' W 075°34'2 4.5
2017-Sep-13 02:00N 39°33' W 075°35'3 7.0
2017-Sep-13 01:30N 39°33' W 075°40'3 6.9
2017-Sep-13 01:00N 39°32' W 075°44'3 6.7
2017-Sep-13 00:30N 39°32' W 075°48'3 6.2
2017-Sep-13 00:00N 39°32' W 075°52'3 6.5
2017-Sep-12 23:31N 39°30' W 075°56'3 6.7
2017-Sep-12 23:00N 39°27' W 075°59'3 6.9
2017-Sep-12 22:30N 39°25' W 076°02'4 7.0
2017-Sep-12 22:00N 39°23' W 076°06'3 7.0
2017-Sep-12 21:30N 39°21' W 076°10'3 6.9
2017-Sep-12 21:00N 39°19' W 076°13'4 7.3
2017-Sep-12 20:30N 39°15' W 076°14'4 7.4
2017-Sep-12 20:01N 39°12' W 076°16'4 7.6
2017-Sep-12 19:30N 39°09' W 076°19'4 7.6
2017-Sep-12 19:00N 39°10' W 076°24'4 8.4
2017-Sep-12 18:30N 39°12' W 076°29'4 8.1
2017-Sep-12 18:00N 39°14' W 076°33'1 1.6
2017-Sep-12 17:30N 39°15' W 076°33'1 1.2
2017-Sep-12 17:00N 39°15' W 076°33'0 0.1
2017-Sep-12 16:29N 39°15' W 076°33'0 0.0
2017-Sep-12 15:59N 39°15' W 076°33'0 0.0
2017-Sep-12 15:29N 39°15' W 076°33'0 0.0
2017-Sep-12 14:59N 39°15' W 076°33'0 0.0
2017-Sep-12 14:29N 39°15' W 076°33'0 0.0
2017-Sep-12 13:59N 39°15' W 076°33'0 0.1
2017-Sep-12 13:29N 39°15' W 076°33'0 0.0
2017-Sep-12 12:59N 39°15' W 076°33'1 1.5
2017-Sep-12 12:29N 39°15' W 076°33'0 0.0
2017-Sep-12 11:59N 39°15' W 076°33'0 0.0
2017-Sep-12 11:29N 39°15' W 076°33'0 0.0
2017-Sep-12 10:59N 39°15' W 076°33'0 0.0
2017-Sep-12 10:26N 39°15' W 076°33'0 0.1
2017-Sep-12 09:59N 39°15' W 076°33'0 0.0
2017-Sep-12 09:29N 39°15' W 076°33'0 0.0
2017-Sep-12 08:59N 39°15' W 076°33'0 0.0
2017-Sep-12 08:29N 39°15' W 076°33'0 0.0
2017-Sep-12 07:59N 39°15' W 076°33'0 0.0
2017-Sep-12 07:29N 39°15' W 076°33'0 0.0
2017-Sep-12 06:59N 39°15' W 076°33'0 0.1
2017-Sep-12 06:29N 39°15' W 076°33'0 0.0
2017-Sep-12 05:59N 39°15' W 076°33'0 0.0
2017-Sep-12 05:29N 39°15' W 076°33'0 0.0
2017-Sep-12 04:56N 39°15' W 076°33'0 0.0
2017-Sep-12 04:29N 39°15' W 076°33'0 0.0
2017-Sep-12 03:59N 39°15' W 076°33'0 0.0
2017-Sep-12 03:29N 39°15' W 076°33'0 0.0
2017-Sep-12 02:59N 39°15' W 076°33'0 0.1
2017-Sep-12 02:29N 39°15' W 076°33'0 0.0
2017-Sep-12 01:59N 39°15' W 076°33'0 0.0
2017-Sep-12 01:29N 39°15' W 076°33'0 0.0
2017-Sep-12 00:59N 39°15' W 076°33'0 0.0
2017-Sep-12 00:29N 39°15' W 076°33'0 0.0
2017-Sep-11 23:59N 39°15' W 076°33'1 1.4
2017-Sep-11 23:28N 39°15' W 076°33'1 1.4
2017-Sep-11 22:58N 39°15' W 076°33'0 0.0
2017-Sep-11 22:28N 39°15' W 076°33'0 0.1
2017-Sep-11 21:58N 39°15' W 076°33'0 0.1
2017-Sep-11 21:28N 39°15' W 076°33'0 0.1
2017-Sep-11 20:58N 39°15' W 076°33'0 0.0
2017-Sep-11 20:28N 39°15' W 076°33'0 0.0
2017-Sep-11 19:58N 39°15' W 076°33'0 0.0
2017-Sep-11 19:28N 39°15' W 076°33'0 0.0
2017-Sep-11 18:58N 39°15' W 076°33'0 0.0
2017-Sep-11 18:28N 39°15' W 076°33'0 0.1
2017-Sep-11 18:01N 39°15' W 076°33'0 0.1
2017-Sep-11 17:30N 39°15' W 076°33'0 0.0
2017-Sep-11 17:00N 39°15' W 076°33'0 0.1
2017-Sep-11 16:30N 39°15' W 076°33'0 0.1
2017-Sep-11 16:00N 39°15' W 076°33'0 0.0
2017-Sep-11 15:30N 39°15' W 076°33'0 0.0
2017-Sep-11 15:00N 39°15' W 076°33'0 0.0
2017-Sep-11 14:30N 39°15' W 076°33'0 0.0
2017-Sep-11 14:00N 39°15' W 076°33'0 0.1
2017-Sep-11 13:30N 39°15' W 076°33'0 0.0
2017-Sep-11 13:00N 39°15' W 076°33'0 0.0
2017-Sep-11 12:30N 39°15' W 076°33'0 0.0
2017-Sep-11 12:00N 39°15' W 076°33'0 0.0
2017-Sep-11 11:30N 39°15' W 076°33'0 0.0
2017-Sep-11 11:00N 39°15' W 076°33'0 0.0
2017-Sep-11 10:30N 39°15' W 076°33'0 0.0
2017-Sep-11 10:00N 39°15' W 076°33'0 0.0
2017-Sep-11 09:30N 39°15' W 076°33'0 0.0
2017-Sep-11 09:00N 39°15' W 076°33'0 0.0
2017-Sep-11 08:30N 39°15' W 076°33'0 0.1
2017-Sep-11 08:00N 39°15' W 076°33'0 0.1
2017-Sep-11 07:31N 39°15' W 076°33'2 3.0
2017-Sep-11 07:00N 39°13' W 076°32'4 7.1
2017-Sep-11 06:31N 39°11' W 076°28'3 5.9
2017-Sep-11 06:00N 39°10' W 076°25'3 6.7
2017-Sep-11 05:30N 39°09' W 076°21'  
Track history (hours):
 
Tides and Currents Weather Stations Pressure Air Temp Water Temp Dewpoint Dewpoint Depression Visibility Wind Speed Wind Dir Waves Ship Positions

Falcon

Owner: Allied Transportation Company, NORFOLK, VA. More information available from US FCC via Universal Licensing System and Coast Guard Vessel Documentation Center.

Last reported at 2017-Sep-21 05:07 UTC. Time now 2017-Sep-21 15:52 UTC.
Position N 36°45' W 075°50'.

Length 37 m; draft 6 m.

Type: Tug. MMSI: 366976720.

Date/timePositionNaut miles runAvg speedWind from/ knotsBaromVisibWave heightAir tempDewpointWater temp
2017-Sep-21 05:07N 36°45' W 075°50'1 7.9
2017-Sep-21 04:59N 36°46' W 075°50'4 7.9
2017-Sep-21 04:30N 36°49' W 075°52'4 7.8
2017-Sep-21 04:00N 36°53' W 075°55'3 7.0
2017-Sep-21 03:30N 36°55' W 075°58'4 7.1
2017-Sep-21 03:00N 36°57' W 076°02'3 6.5
2017-Sep-21 02:30N 36°58' W 076°05'3 5.9
2017-Sep-21 02:00N 36°59' W 076°09'8 5.8
2017-Sep-21 00:35N 36°59' W 076°19'1 6.4
2017-Sep-21 00:26N 36°58' W 076°20'2 4.3
2017-Sep-21 00:00N 36°57' W 076°22'0 0.5
2017-Sep-20 23:17N 36°57' W 076°21'0 0.1
2017-Sep-20 22:47N 36°57' W 076°21'0 0.0
2017-Sep-20 15:38N 36°57' W 076°21'0 0.0
2017-Sep-20 13:08N 36°57' W 076°21'0 0.0
2017-Sep-20 12:59N 36°57' W 076°21'0 0.0
2017-Sep-20 12:29N 36°57' W 076°21'0 0.0
2017-Sep-20 11:56N 36°57' W 076°21'0 0.1
2017-Sep-20 11:26N 36°57' W 076°21'0 0.1
2017-Sep-20 10:26N 36°57' W 076°21'0 0.1
2017-Sep-20 09:56N 36°57' W 076°21'0 0.0
2017-Sep-20 05:05N 36°57' W 076°21'0 0.1
2017-Sep-20 04:47N 36°57' W 076°21'0 0.1
2017-Sep-20 04:29N 36°57' W 076°21'0 0.0
2017-Sep-20 03:56N 36°57' W 076°21'0 0.1
2017-Sep-20 02:02N 36°57' W 076°21'0 0.1
2017-Sep-20 01:53N 36°57' W 076°21'0 0.0
2017-Sep-20 01:29N 36°57' W 076°21'0 0.0
2017-Sep-20 00:59N 36°57' W 076°21'0 0.0
2017-Sep-20 00:29N 36°57' W 076°21'0 0.0
2017-Sep-19 23:56N 36°57' W 076°21'0 0.0
2017-Sep-19 22:47N 36°57' W 076°21'0 0.1
2017-Sep-19 22:29N 36°57' W 076°21'0 0.0
2017-Sep-19 21:59N 36°57' W 076°21'0 0.0
2017-Sep-19 13:47N 36°57' W 076°21'0 0.0
2017-Sep-19 13:29N 36°57' W 076°21'0 0.0
2017-Sep-19 12:56N 36°57' W 076°21'0 0.0
2017-Sep-19 12:29N 36°57' W 076°21'0 0.0
2017-Sep-19 11:59N 36°57' W 076°21'0 0.0
2017-Sep-19 11:29N 36°57' W 076°21'0 0.0
2017-Sep-19 10:59N 36°57' W 076°21'0 0.0
2017-Sep-19 03:35N 36°57' W 076°21'0 0.0
2017-Sep-19 03:29N 36°57' W 076°21'0 0.0
2017-Sep-19 02:59N 36°57' W 076°21'0 0.0
2017-Sep-19 02:29N 36°57' W 076°21'0 0.0
2017-Sep-19 01:59N 36°57' W 076°21'0 0.0
2017-Sep-19 01:29N 36°57' W 076°21'0 0.0
2017-Sep-19 00:59N 36°57' W 076°21'0 0.0
2017-Sep-19 00:29N 36°57' W 076°21'0 0.0
2017-Sep-18 23:59N 36°57' W 076°21'0 0.0
2017-Sep-18 23:20N 36°57' W 076°21'0 0.0
2017-Sep-18 22:56N 36°57' W 076°21'0 0.0
2017-Sep-18 22:29N 36°57' W 076°21'0 0.0
2017-Sep-18 21:59N 36°57' W 076°21'0 0.0
2017-Sep-18 21:29N 36°57' W 076°21'0 0.0
2017-Sep-18 20:56N 36°57' W 076°21'0 0.0
2017-Sep-18 20:29N 36°57' W 076°21'0 0.1
2017-Sep-18 18:56N 36°57' W 076°21'0 0.0
2017-Sep-18 15:17N 36°57' W 076°21'0 0.0
2017-Sep-18 14:44N 36°57' W 076°21'0 0.0
2017-Sep-18 14:29N 36°57' W 076°21'0 0.0
2017-Sep-18 13:59N 36°57' W 076°21'0 0.0
2017-Sep-18 13:20N 36°57' W 076°21'0 0.0
2017-Sep-18 12:59N 36°57' W 076°21'0 0.0
2017-Sep-18 12:29N 36°57' W 076°21'0 0.0
2017-Sep-18 11:59N 36°57' W 076°21'0 0.0
2017-Sep-18 11:26N 36°57' W 076°21'0 0.0
2017-Sep-18 10:59N 36°57' W 076°21'0 0.0
2017-Sep-18 10:02N 36°57' W 076°21'0 0.0
2017-Sep-18 09:47N 36°57' W 076°21'0 0.1
2017-Sep-18 09:29N 36°57' W 076°21'0 0.0
2017-Sep-18 08:59N 36°57' W 076°21'0 0.0
2017-Sep-18 08:29N 36°57' W 076°21'0 0.0
2017-Sep-18 02:41N 36°57' W 076°21'0 0.1
2017-Sep-18 02:29N 36°57' W 076°21'0 0.0
2017-Sep-18 01:59N 36°57' W 076°21'0 0.0
2017-Sep-18 01:17N 36°57' W 076°21'0 0.0
2017-Sep-18 00:41N 36°57' W 076°21'0 0.0
2017-Sep-18 00:29N 36°57' W 076°21'0 0.0
2017-Sep-17 23:53N 36°57' W 076°21'0 0.0
2017-Sep-17 23:23N 36°57' W 076°21'0 0.0
2017-Sep-17 22:59N 36°57' W 076°21'0 0.0
2017-Sep-17 19:38N 36°57' W 076°21'0 0.0
2017-Sep-17 19:29N 36°57' W 076°21'0 0.0
2017-Sep-17 14:11N 36°57' W 076°21'0 0.1
2017-Sep-17 13:59N 36°57' W 076°21'0 0.0
2017-Sep-17 13:20N 36°57' W 076°21'0 0.1
2017-Sep-17 12:59N 36°57' W 076°21'0 0.0
2017-Sep-17 12:23N 36°57' W 076°21'0 0.0
2017-Sep-17 11:56N 36°57' W 076°21'0 0.0
2017-Sep-17 11:29N 36°57' W 076°21'0 0.0
2017-Sep-17 10:59N 36°57' W 076°21'0 0.1
2017-Sep-17 10:29N 36°57' W 076°21'0 0.0
2017-Sep-17 08:35N 36°57' W 076°21'0 0.0
2017-Sep-17 08:20N 36°57' W 076°21'0 0.0
2017-Sep-17 07:59N 36°57' W 076°21'0 0.1
2017-Sep-17 06:20N 36°57' W 076°21'0 0.1
2017-Sep-17 05:59N 36°57' W 076°21'0 0.0
2017-Sep-17 04:53N 36°57' W 076°21'0 0.0
2017-Sep-17 04:26N 36°57' W 076°21'0 0.0
2017-Sep-17 03:59N 36°57' W 076°21'0 0.0
2017-Sep-17 03:14N 36°57' W 076°21'0 0.0
2017-Sep-17 01:47N 36°57' W 076°21'0 0.1
2017-Sep-17 01:29N 36°57' W 076°21'0 0.1
2017-Sep-17 00:44N 36°57' W 076°21'0 0.0
2017-Sep-17 00:26N 36°57' W 076°21'0 0.0
2017-Sep-16 23:56N 36°57' W 076°21'0 0.0
2017-Sep-16 22:32N 36°57' W 076°21'0 0.1
2017-Sep-16 22:29N 36°57' W 076°21'0 0.0
2017-Sep-16 21:59N 36°57' W 076°21'0 0.0
2017-Sep-16 19:47N 36°57' W 076°21'0 0.0
2017-Sep-16 19:29N 36°57' W 076°21'1 0.3
2017-Sep-16 16:21N 36°58' W 076°20'33 6.6
2017-Sep-16 11:22N 37°30' W 076°10'3 8.0
2017-Sep-16 10:58N 37°33' W 076°10'5 8.3
2017-Sep-16 10:24N 37°38' W 076°10'4 8.7
2017-Sep-16 09:54N 37°42' W 076°11'4 9.0
2017-Sep-16 09:27N 37°46' W 076°11'4 9.1
2017-Sep-16 09:00N 37°50' W 076°10'5 9.1
2017-Sep-16 08:30N 37°55' W 076°11'5 9.2
2017-Sep-16 08:00N 37°59' W 076°13'5 9.0
2017-Sep-16 07:29N 38°03' W 076°14'5 8.7
2017-Sep-16 06:57N 38°08' W 076°16'4 8.6
2017-Sep-16 06:29N 38°12' W 076°17'4 8.3
2017-Sep-16 06:01N 38°15' W 076°19'4 8.1
2017-Sep-16 05:29N 38°19' W 076°20'4 8.0
2017-Sep-16 05:00N 38°23' W 076°21'16 7.8
2017-Sep-16 02:56N 38°39' W 076°28'3 8.0
2017-Sep-16 02:30N 38°42' W 076°28'4 8.2
2017-Sep-16 01:59N 38°46' W 076°27'4 8.4
2017-Sep-16 01:30N 38°50' W 076°26'4 8.8
2017-Sep-16 01:00N 38°54' W 076°25'5 9.1
2017-Sep-16 00:31N 38°59' W 076°23'5 9.2
2017-Sep-16 00:00N 39°03' W 076°21'4 8.4
2017-Sep-15 23:30N 39°07' W 076°18'4 7.2
2017-Sep-15 23:00N 39°10' W 076°18'4 8.6
2017-Sep-15 22:30N 39°14' W 076°15'4 8.2
2017-Sep-15 22:00N 39°18' W 076°13'4 7.7
2017-Sep-15 21:30N 39°21' W 076°10'4 7.6
2017-Sep-15 21:00N 39°23' W 076°06'4 7.3
2017-Sep-15 20:30N 39°25' W 076°02'4 7.3
2017-Sep-15 20:00N 39°27' W 075°59'4 7.1
2017-Sep-15 19:30N 39°30' W 075°56'3 6.6
2017-Sep-15 19:00N 39°32' W 075°52'3 6.0
2017-Sep-15 18:30N 39°32' W 075°48'3 6.5
2017-Sep-15 18:00N 39°32' W 075°44'3 6.9
2017-Sep-15 17:30N 39°33' W 075°40'4 7.1
2017-Sep-15 17:00N 39°33' W 075°35'3 5.8
2017-Sep-15 16:30N 39°36' W 075°34'5 9.3
2017-Sep-15 16:00N 39°40' W 075°32'510.0
2017-Sep-15 15:30N 39°45' W 075°29'5 9.1
2017-Sep-15 15:01N 39°48' W 075°25'4 8.8
2017-Sep-15 14:30N 39°51' W 075°20'4 7.8
2017-Sep-15 14:00N 39°51' W 075°15'4 7.1
2017-Sep-15 13:30N 39°53' W 075°12'1 1.3
2017-Sep-15 13:00N 39°54' W 075°12'0 0.0
2017-Sep-15 12:30N 39°54' W 075°12'0 0.0
2017-Sep-15 12:00N 39°54' W 075°12'0 0.0
2017-Sep-15 11:31N 39°54' W 075°12'0 0.0
2017-Sep-15 11:01N 39°54' W 075°12'0 0.1
2017-Sep-15 10:31N 39°54' W 075°12'0 0.0
2017-Sep-15 10:00N 39°54' W 075°12'0 0.0
2017-Sep-15 09:30N 39°54' W 075°12'0 0.0
2017-Sep-15 09:00N 39°54' W 075°12'0 0.0
2017-Sep-15 08:30N 39°54' W 075°12'0 0.0
2017-Sep-15 08:01N 39°54' W 075°12'0 0.0
2017-Sep-15 07:30N 39°54' W 075°12'0 0.0
2017-Sep-15 07:01N 39°54' W 075°12'0 0.0
2017-Sep-15 06:30N 39°54' W 075°12'0 0.0
2017-Sep-15 06:00N 39°54' W 075°12'0 0.0
2017-Sep-15 05:30N 39°54' W 075°12'0 0.0
2017-Sep-15 05:00N 39°54' W 075°12'0 0.0
2017-Sep-15 04:30N 39°54' W 075°12'0 0.0
2017-Sep-15 04:00N 39°54' W 075°12'0 0.0
2017-Sep-15 03:30N 39°54' W 075°12'0 0.0
2017-Sep-15 03:00N 39°54' W 075°12'0 0.0
2017-Sep-15 02:30N 39°54' W 075°12'0 0.0
2017-Sep-15 02:00N 39°54' W 075°12'0 0.0
2017-Sep-15 01:30N 39°54' W 075°12'0 0.0
2017-Sep-15 01:00N 39°54' W 075°12'0 0.0
2017-Sep-15 00:30N 39°54' W 075°12'0 0.2
2017-Sep-15 00:00N 39°54' W 075°12'2 3.2
2017-Sep-14 23:30N 39°52' W 075°13'0 0.0
2017-Sep-14 23:00N 39°52' W 075°13'0 0.0
2017-Sep-14 22:30N 39°52' W 075°13'0 0.0
2017-Sep-14 22:00N 39°52' W 075°13'0 0.0
2017-Sep-14 21:30N 39°52' W 075°13'0 0.0
2017-Sep-14 21:00N 39°52' W 075°13'0 0.0
2017-Sep-14 20:30N 39°52' W 075°13'0 0.1
2017-Sep-14 20:00N 39°52' W 075°13'0 0.3
2017-Sep-14 19:30N 39°52' W 075°13'0 0.1
2017-Sep-14 19:00N 39°52' W 075°13'0 0.0
2017-Sep-14 18:30N 39°52' W 075°13'0 0.1
2017-Sep-14 18:00N 39°52' W 075°13'0 0.1
2017-Sep-14 17:30N 39°52' W 075°13'0 0.0
2017-Sep-14 17:00N 39°52' W 075°13'0 0.0
2017-Sep-14 16:30N 39°52' W 075°13'0 0.0
2017-Sep-14 16:00N 39°52' W 075°13'0 0.1
2017-Sep-14 15:30N 39°52' W 075°13'0 0.1
2017-Sep-14 15:00N 39°52' W 075°13'0 0.2
2017-Sep-14 14:30N 39°52' W 075°13'0 0.1
2017-Sep-14 14:00N 39°52' W 075°13'0 0.0
2017-Sep-14 13:30N 39°52' W 075°13'0 0.0
2017-Sep-14 13:00N 39°52' W 075°13'0 0.0
2017-Sep-14 12:30N 39°52' W 075°13'0 0.0
2017-Sep-14 12:00N 39°52' W 075°13'0 0.0
2017-Sep-14 11:30N 39°52' W 075°13'0 0.0
2017-Sep-14 11:00N 39°52' W 075°13'0 0.0
2017-Sep-14 10:30N 39°52' W 075°13'0 0.1
2017-Sep-14 10:00N 39°52' W 075°13'0 0.0
2017-Sep-14 09:30N 39°52' W 075°13'0 0.0
2017-Sep-14 09:00N 39°52' W 075°13'0 0.0
2017-Sep-14 08:30N 39°52' W 075°13'0 0.2
2017-Sep-14 08:00N 39°52' W 075°13'0 0.2
2017-Sep-14 07:30N 39°52' W 075°13'0 0.0
2017-Sep-14 07:00N 39°52' W 075°13'0 0.0
2017-Sep-14 06:30N 39°52' W 075°13'0 0.1
2017-Sep-14 06:00N 39°52' W 075°13'0 0.0
2017-Sep-14 05:30N 39°52' W 075°13'0 0.0
2017-Sep-14 05:00N 39°52' W 075°13'0 0.0
2017-Sep-14 04:30N 39°52' W 075°13'0 0.0
2017-Sep-14 04:00N 39°52' W 075°13'0 0.0
2017-Sep-14 03:30N 39°52' W 075°13'0 0.0
2017-Sep-14 03:00N 39°52' W 075°13'0 0.1
2017-Sep-14 02:30N 39°52' W 075°13'0 0.0
2017-Sep-14 02:00N 39°52' W 075°13'0 0.3
2017-Sep-14 01:30N 39°52' W 075°13'0 0.1
2017-Sep-14 01:00N 39°52' W 075°13'0 0.1
2017-Sep-14 00:30N 39°52' W 075°13'0 0.0
2017-Sep-14 00:00N 39°52' W 075°13'0 0.0
2017-Sep-13 23:30N 39°52' W 075°13'0 0.0
2017-Sep-13 23:00N 39°52' W 075°13'0 0.0
2017-Sep-13 22:31N 39°52' W 075°13'0 0.0
2017-Sep-13 22:00N 39°52' W 075°13'0 0.0
2017-Sep-13 21:30N 39°52' W 075°13'0 0.0
2017-Sep-13 21:00N 39°52' W 075°13'0 0.0
2017-Sep-13 20:30N 39°52' W 075°13'0 0.0
2017-Sep-13 20:01N 39°52' W 075°13'0 0.0
2017-Sep-13 19:31N 39°52' W 075°13'2 3.2
2017-Sep-13 19:00N 39°54' W 075°12'0 0.6
2017-Sep-13 18:31N 39°54' W 075°12'1 1.9
2017-Sep-13 18:01N 39°53' W 075°12'1 2.0
2017-Sep-13 17:31N 39°52' W 075°13'1 1.0
2017-Sep-13 17:00N 39°52' W 075°13'3 5.8
2017-Sep-13 16:30N 39°51' W 075°17'4 7.7
2017-Sep-13 16:01N 39°50' W 075°22'4 7.9
2017-Sep-13 15:30N 39°48' W 075°26'4 8.0
2017-Sep-13 15:00N 39°45' W 075°30'2 4.1
2017-Sep-13 14:30N 39°43' W 075°31'0 0.0
2017-Sep-13 14:00N 39°43' W 075°31'0 0.0
2017-Sep-13 13:30N 39°43' W 075°31'0 0.0
2017-Sep-13 13:00N 39°43' W 075°31'0 0.0
2017-Sep-13 12:30N 39°43' W 075°31'0 0.0
2017-Sep-13 12:00N 39°43' W 075°31'0 0.0
2017-Sep-13 11:30N 39°43' W 075°31'0 0.0
2017-Sep-13 11:00N 39°43' W 075°31'0 0.0
2017-Sep-13 10:30N 39°43' W 075°31'0 0.0
2017-Sep-13 10:00N 39°43' W 075°31'0 0.0
2017-Sep-13 09:30N 39°43' W 075°31'0 0.0
2017-Sep-13 09:00N 39°43' W 075°31'0 0.0
2017-Sep-13 08:30N 39°43' W 075°31'0 0.0
2017-Sep-13 08:00N 39°43' W 075°31'0 0.0
2017-Sep-13 07:30N 39°43' W 075°31'0 0.0
2017-Sep-13 07:00N 39°43' W 075°31'0 0.0
2017-Sep-13 06:30N 39°43' W 075°31'0 0.0
2017-Sep-13 06:00N 39°43' W 075°31'0 0.0
2017-Sep-13 05:30N 39°43' W 075°31'0 0.0
2017-Sep-13 05:00N 39°43' W 075°31'0 0.0
2017-Sep-13 04:29N 39°43' W 075°31'0 0.2
2017-Sep-13 04:00N 39°43' W 075°31'2 5.0
2017-Sep-13 03:30N 39°41' W 075°31'3 6.0
2017-Sep-13 03:00N 39°38' W 075°34'3 5.5
2017-Sep-13 02:31N 39°35' W 075°34'2 4.5
2017-Sep-13 02:00N 39°33' W 075°35'3 7.0
2017-Sep-13 01:30N 39°33' W 075°40'3 6.9
2017-Sep-13 01:00N 39°32' W 075°44'3 6.7
2017-Sep-13 00:30N 39°32' W 075°48'3 6.2
2017-Sep-13 00:00N 39°32' W 075°52'3 6.5
2017-Sep-12 23:31N 39°30' W 075°56'3 6.7
2017-Sep-12 23:00N 39°27' W 075°59'3 6.9
2017-Sep-12 22:30N 39°25' W 076°02'4 7.0
2017-Sep-12 22:00N 39°23' W 076°06'3 7.0
2017-Sep-12 21:30N 39°21' W 076°10'3 6.9
2017-Sep-12 21:00N 39°19' W 076°13'4 7.3
2017-Sep-12 20:30N 39°15' W 076°14'4 7.4
2017-Sep-12 20:01N 39°12' W 076°16'4 7.6
2017-Sep-12 19:30N 39°09' W 076°19'4 7.6
2017-Sep-12 19:00N 39°10' W 076°24'4 8.4
2017-Sep-12 18:30N 39°12' W 076°29'4 8.1
2017-Sep-12 18:00N 39°14' W 076°33'1 1.6
2017-Sep-12 17:30N 39°15' W 076°33'1 1.2
2017-Sep-12 17:00N 39°15' W 076°33'0 0.1
2017-Sep-12 16:29N 39°15' W 076°33'0 0.0
2017-Sep-12 15:59N 39°15' W 076°33'0 0.0
2017-Sep-12 15:29N 39°15' W 076°33'0 0.0
2017-Sep-12 14:59N 39°15' W 076°33'0 0.0
2017-Sep-12 14:29N 39°15' W 076°33'0 0.0
2017-Sep-12 13:59N 39°15' W 076°33'0 0.1
2017-Sep-12 13:29N 39°15' W 076°33'0 0.0
2017-Sep-12 12:59N 39°15' W 076°33'1 1.5
2017-Sep-12 12:29N 39°15' W 076°33'0 0.0
2017-Sep-12 11:59N 39°15' W 076°33'0 0.0
2017-Sep-12 11:29N 39°15' W 076°33'0 0.0
2017-Sep-12 10:59N 39°15' W 076°33'0 0.0
2017-Sep-12 10:26N 39°15' W 076°33'0 0.1
2017-Sep-12 09:59N 39°15' W 076°33'0 0.0
2017-Sep-12 09:29N 39°15' W 076°33'0 0.0
2017-Sep-12 08:59N 39°15' W 076°33'0 0.0
2017-Sep-12 08:29N 39°15' W 076°33'0 0.0
2017-Sep-12 07:59N 39°15' W 076°33'0 0.0
2017-Sep-12 07:29N 39°15' W 076°33'0 0.0
2017-Sep-12 06:59N 39°15' W 076°33'0 0.1
2017-Sep-12 06:29N 39°15' W 076°33'0 0.0
2017-Sep-12 05:59N 39°15' W 076°33'0 0.0
2017-Sep-12 05:29N 39°15' W 076°33'0 0.0
2017-Sep-12 04:56N 39°15' W 076°33'0 0.0
2017-Sep-12 04:29N 39°15' W 076°33'0 0.0
2017-Sep-12 03:59N 39°15' W 076°33'0 0.0
2017-Sep-12 03:29N 39°15' W 076°33'0 0.0
2017-Sep-12 02:59N 39°15' W 076°33'0 0.1
2017-Sep-12 02:29N 39°15' W 076°33'0 0.0
2017-Sep-12 01:59N 39°15' W 076°33'0 0.0
2017-Sep-12 01:29N 39°15' W 076°33'0 0.0
2017-Sep-12 00:59N 39°15' W 076°33'0 0.0
2017-Sep-12 00:29N 39°15' W 076°33'0 0.0
2017-Sep-11 23:59N 39°15' W 076°33'1 1.4
2017-Sep-11 23:28N 39°15' W 076°33'1 1.4
2017-Sep-11 22:58N 39°15' W 076°33'0 0.0
2017-Sep-11 22:28N 39°15' W 076°33'0 0.1
2017-Sep-11 21:58N 39°15' W 076°33'0 0.1
2017-Sep-11 21:28N 39°15' W 076°33'0 0.1
2017-Sep-11 20:58N 39°15' W 076°33'0 0.0
2017-Sep-11 20:28N 39°15' W 076°33'0 0.0
2017-Sep-11 19:58N 39°15' W 076°33'0 0.0
2017-Sep-11 19:28N 39°15' W 076°33'0 0.0
2017-Sep-11 18:58N 39°15' W 076°33'0 0.0
2017-Sep-11 18:28N 39°15' W 076°33'0 0.1
2017-Sep-11 18:01N 39°15' W 076°33'0 0.1
2017-Sep-11 17:30N 39°15' W 076°33'0 0.0
2017-Sep-11 17:00N 39°15' W 076°33'0 0.1
2017-Sep-11 16:30N 39°15' W 076°33'0 0.1
2017-Sep-11 16:00N 39°15' W 076°33'0 0.0
2017-Sep-11 15:30N 39°15' W 076°33'0 0.0
2017-Sep-11 15:00N 39°15' W 076°33'0 0.0
2017-Sep-11 14:30N 39°15' W 076°33'0 0.0
2017-Sep-11 14:00N 39°15' W 076°33'0 0.1
2017-Sep-11 13:30N 39°15' W 076°33'0 0.0
2017-Sep-11 13:00N 39°15' W 076°33'0 0.0
2017-Sep-11 12:30N 39°15' W 076°33'0 0.0
2017-Sep-11 12:00N 39°15' W 076°33'0 0.0
2017-Sep-11 11:30N 39°15' W 076°33'0 0.0
2017-Sep-11 11:00N 39°15' W 076°33'0 0.0
2017-Sep-11 10:30N 39°15' W 076°33'0 0.0
2017-Sep-11 10:00N 39°15' W 076°33'0 0.0
2017-Sep-11 09:30N 39°15' W 076°33'0 0.0
2017-Sep-11 09:00N 39°15' W 076°33'0 0.0
2017-Sep-11 08:30N 39°15' W 076°33'0 0.1
2017-Sep-11 08:00N 39°15' W 076°33'0 0.1
2017-Sep-11 07:31N 39°15' W 076°33'2 3.0
2017-Sep-11 07:00N 39°13' W 076°32'4 7.1
2017-Sep-11 06:31N 39°11' W 076°28'3 5.9
2017-Sep-11 06:00N 39°10' W 076°25'3 6.7
2017-Sep-11 05:30N 39°09' W 076°21'  

Dump ship's entire track history